KASD

Slidell Airport

Slidell, Louisiana, USA
METAR KASD 140553Z AUTO 00000KT 10SM CLR 24/21 A3002 RMK AO2 SLP165 T02390211 10322 20239 403500217 53002
Observed Flight Rules
Aug-14 @ 05:53 UTC (50 minutes ago) Visual Flight Rules
Visibility Clouds
10 miles
  • Clear skies
Temperatures Readings
Current 24°C / 75°F
Dewpoint 21°C / 70°F
Humidity 83%
Altimeter 30.02" Hg
Pressure 1016.5 hPa
Elevation 9
METAR KASD 140553Z AUTO 00000KT 10SM CLR 24/21 A3002 RMK AO2 SLP165 T02390211 10322 20239 403500217 53002
Observed Flight Rules
Aug-14 @ 05:53 UTC
(50 minutes ago)
VFR
Clouds
  • Clear skies
Temperature Dewpoint
24°C / 75°F 21°C / 70°F
Humidity Altimeter Pressure
83% 30.02" Hg 1016.5 hPa